LGL8171 ELLX-LFBD
Flight info
| Callsign | LGL8171 |
|---|---|
| Flight time | 1h 29m |
| Altitude | 23000 |
| Route | RAPOR DCT GIMER DCT AHVEC UN857 DISAK DCT DIRMO DCT ARTAX DCT BEBIX DCT LMG |
| Aircraft | DH8D/M-SDE2E3FGRY/H |
Departure
| Time | 2026-04-30 18:40 |
|---|---|
| Airport | Luxembourg-Findel International Airport (ELLX) |
Arrival
| Time | 2026-04-30 20:09 |
|---|---|
| Airport | Bordeaux–Mérignac Airport (LFBD) |
| Time | Latitude | Longitude | Altitude | Speed | Heading |
|---|---|---|---|---|---|
| 2026-04-30 17:56 | 49.63129 | 6.21426 | 1233 ft | 0 kts | 59° |
| 2026-04-30 18:21 | 49.63129 | 6.21427 | 1233 ft | 0 kts | 59° |
| 2026-04-30 18:21 | 49.63129 | 6.21426 | 1233 ft | 0 kts | 59° |
| 2026-04-30 18:22 | 49.63117 | 6.21395 | 1233 ft | 2 kts | 60° |
| 2026-04-30 18:22 | 49.63110 | 6.21375 | 1233 ft | 2 kts | 60° |
| 2026-04-30 18:23 | 49.63105 | 6.21353 | 1234 ft | 2 kts | 101° |
| 2026-04-30 18:23 | 49.63113 | 6.21335 | 1234 ft | 1 kts | 144° |
| 2026-04-30 18:23 | 49.63116 | 6.21331 | 1234 ft | 0 kts | 150° |
| 2026-04-30 18:28 | 49.63087 | 6.21357 | 1233 ft | 7 kts | 149° |
| 2026-04-30 18:29 | 49.63047 | 6.21395 | 1233 ft | 6 kts | 148° |
| 2026-04-30 18:29 | 49.62938 | 6.21195 | 1235 ft | 11 kts | 244° |
| 2026-04-30 18:30 | 49.62878 | 6.21005 | 1237 ft | 18 kts | 244° |
| 2026-04-30 18:30 | 49.62698 | 6.20623 | 1236 ft | 20 kts | 217° |
| 2026-04-30 18:31 | 49.62601 | 6.20472 | 1232 ft | 19 kts | 228° |
| 2026-04-30 18:31 | 49.62448 | 6.20148 | 1220 ft | 18 kts | 240° |
| 2026-04-30 18:32 | 49.62308 | 6.19771 | 1206 ft | 20 kts | 240° |
| 2026-04-30 18:32 | 49.62231 | 6.19568 | 1197 ft | 22 kts | 241° |
| 2026-04-30 18:32 | 49.62074 | 6.19145 | 1181 ft | 23 kts | 240° |
| 2026-04-30 18:33 | 49.61997 | 6.18935 | 1173 ft | 20 kts | 239° |
| 2026-04-30 18:33 | 49.61883 | 6.18735 | 1164 ft | 6 kts | 217° |
| 2026-04-30 18:33 | 49.61855 | 6.18707 | 1162 ft | 0 kts | 207° |
| 2026-04-30 18:36 | 49.61821 | 6.18709 | 1162 ft | 7 kts | 151° |
| 2026-04-30 18:36 | 49.61778 | 6.18748 | 1162 ft | 6 kts | 145° |
| 2026-04-30 18:36 | 49.61782 | 6.18832 | 1165 ft | 0 kts | 59° |
| 2026-04-30 18:39 | 49.61833 | 6.18966 | 1172 ft | 46 kts | 61° |
| 2026-04-30 18:39 | 49.62120 | 6.19740 | 1201 ft | 114 kts | 60° |
| 2026-04-30 18:39 | 49.62580 | 6.20992 | 1317 ft | 146 kts | 62° |
| 2026-04-30 18:39 | 49.63096 | 6.22398 | 1773 ft | 152 kts | 64° |
| 2026-04-30 18:40 | 49.63573 | 6.23754 | 2503 ft | 141 kts | 69° |
| 2026-04-30 18:40 | 49.63987 | 6.25054 | 3166 ft | 137 kts | 70° |
| 2026-04-30 18:40 | 49.64464 | 6.26392 | 3614 ft | 150 kts | 68° |
| 2026-04-30 18:40 | 49.65012 | 6.27880 | 3947 ft | 166 kts | 68° |
| 2026-04-30 18:41 | 49.65593 | 6.29417 | 4470 ft | 175 kts | 66° |
| 2026-04-30 18:41 | 49.66225 | 6.31101 | 4825 ft | 189 kts | 66° |
| 2026-04-30 18:41 | 49.66895 | 6.32866 | 5371 ft | 194 kts | 65° |
| 2026-04-30 18:41 | 49.67753 | 6.34515 | 5915 ft | 206 kts | 42° |
| 2026-04-30 18:42 | 49.69132 | 6.35301 | 6424 ft | 225 kts | 6° |
| 2026-04-30 18:42 | 49.71495 | 6.32302 | 7467 ft | 245 kts | 280° |
| 2026-04-30 18:42 | 49.71397 | 6.29716 | 8012 ft | 244 kts | 255° |
| 2026-04-30 18:45 | 49.67212 | 6.01469 | 13094 ft | 280 kts | 257° |
| 2026-04-30 18:45 | 49.66786 | 5.98548 | 13626 ft | 280 kts | 257° |
| 2026-04-30 18:45 | 49.66361 | 5.95638 | 14120 ft | 280 kts | 257° |
| 2026-04-30 18:46 | 49.65934 | 5.92717 | 14610 ft | 280 kts | 256° |
| 2026-04-30 18:46 | 49.65507 | 5.89807 | 15084 ft | 280 kts | 257° |
| 2026-04-30 18:46 | 49.65081 | 5.86897 | 15530 ft | 280 kts | 257° |
| 2026-04-30 18:46 | 49.64653 | 5.83978 | 15973 ft | 281 kts | 257° |
| 2026-04-30 18:47 | 49.64218 | 5.81026 | 16386 ft | 281 kts | 257° |
| 2026-04-30 18:47 | 49.63784 | 5.78080 | 16784 ft | 281 kts | 257° |
| 2026-04-30 18:47 | 49.63351 | 5.75140 | 17189 ft | 282 kts | 256° |
| 2026-04-30 18:47 | 49.62918 | 5.72208 | 17587 ft | 282 kts | 256° |
| 2026-04-30 18:48 | 49.62482 | 5.69266 | 17968 ft | 283 kts | 256° |
| 2026-04-30 18:48 | 49.62046 | 5.66326 | 18344 ft | 283 kts | 256° |
| 2026-04-30 18:48 | 49.61610 | 5.63393 | 18714 ft | 283 kts | 256° |
| 2026-04-30 18:48 | 49.61170 | 5.60439 | 19075 ft | 283 kts | 256° |
| 2026-04-30 18:49 | 49.60811 | 5.57495 | 19423 ft | 283 kts | 264° |
| 2026-04-30 18:49 | 49.60659 | 5.54476 | 19763 ft | 282 kts | 266° |
| 2026-04-30 18:49 | 49.60534 | 5.51439 | 20095 ft | 282 kts | 266° |
| 2026-04-30 18:49 | 49.60408 | 5.48435 | 20411 ft | 282 kts | 266° |
| 2026-04-30 18:50 | 49.60281 | 5.45449 | 20713 ft | 281 kts | 266° |
| 2026-04-30 18:50 | 49.60150 | 5.42446 | 21008 ft | 281 kts | 266° |
| 2026-04-30 18:50 | 49.60016 | 5.39426 | 21291 ft | 281 kts | 266° |
| 2026-04-30 18:50 | 49.59880 | 5.36442 | 21563 ft | 281 kts | 266° |
| 2026-04-30 18:51 | 49.59741 | 5.33446 | 21824 ft | 280 kts | 265° |
| 2026-04-30 18:51 | 49.59603 | 5.30469 | 22071 ft | 280 kts | 265° |
| 2026-04-30 18:51 | 49.59463 | 5.27475 | 22304 ft | 279 kts | 265° |
| 2026-04-30 18:51 | 49.59322 | 5.24496 | 22527 ft | 279 kts | 265° |
| 2026-04-30 18:52 | 49.59163 | 5.21551 | 22732 ft | 278 kts | 261° |
| 2026-04-30 18:52 | 49.58745 | 5.18630 | 22927 ft | 277 kts | 252° |
| 2026-04-30 18:52 | 49.58229 | 5.15756 | 23123 ft | 278 kts | 252° |
| 2026-04-30 18:52 | 49.57711 | 5.12874 | 23200 ft | 283 kts | 252° |
| 2026-04-30 18:53 | 49.57180 | 5.09922 | 23226 ft | 290 kts | 253° |
| 2026-04-30 18:53 | 49.56638 | 5.06907 | 23230 ft | 298 kts | 252° |
| 2026-04-30 18:53 | 49.56078 | 5.03781 | 23236 ft | 306 kts | 253° |
| 2026-04-30 18:53 | 49.55508 | 5.00602 | 23237 ft | 313 kts | 253° |
| 2026-04-30 18:54 | 49.54925 | 4.97352 | 23236 ft | 320 kts | 253° |
| 2026-04-30 18:54 | 49.54325 | 4.94004 | 23233 ft | 327 kts | 252° |
| 2026-04-30 18:54 | 49.53720 | 4.90635 | 23234 ft | 333 kts | 253° |
| 2026-04-30 18:54 | 49.53093 | 4.87149 | 23228 ft | 339 kts | 253° |
| 2026-04-30 18:55 | 49.52465 | 4.83657 | 23227 ft | 343 kts | 253° |
| 2026-04-30 18:55 | 49.51174 | 4.76501 | 23225 ft | 350 kts | 253° |
| 2026-04-30 18:55 | 49.50520 | 4.72881 | 23225 ft | 353 kts | 253° |
| 2026-04-30 18:56 | 49.49206 | 4.65635 | 23395 ft | 352 kts | 253° |
| 2026-04-30 18:56 | 49.48622 | 4.62422 | 23623 ft | 347 kts | 252° |
| 2026-04-30 18:56 | 49.47910 | 4.58507 | 23864 ft | 343 kts | 252° |
| 2026-04-30 18:57 | 49.46627 | 4.51487 | 24240 ft | 339 kts | 252° |
| 2026-04-30 18:57 | 49.45995 | 4.48041 | 24361 ft | 339 kts | 252° |
| 2026-04-30 18:57 | 49.45356 | 4.44560 | 24488 ft | 338 kts | 252° |
| 2026-04-30 18:58 | 49.44076 | 4.37613 | 24793 ft | 336 kts | 252° |
| 2026-04-30 18:58 | 49.43268 | 4.34278 | 24904 ft | 333 kts | 239° |
| 2026-04-30 18:58 | 49.42522 | 4.32230 | 24986 ft | 330 kts | 236° |
| 2026-04-30 18:59 | 49.39789 | 4.25176 | 25200 ft | 331 kts | 236° |
| 2026-04-30 19:00 | 49.36253 | 4.16081 | 25209 ft | 337 kts | 236° |
| 2026-04-30 19:00 | 49.35052 | 4.12994 | 25209 ft | 340 kts | 236° |
| 2026-04-30 19:00 | 49.32616 | 4.06740 | 25215 ft | 343 kts | 236° |
| 2026-04-30 19:01 | 49.30166 | 4.00464 | 25218 ft | 346 kts | 236° |
| 2026-04-30 19:01 | 49.28933 | 3.97309 | 25217 ft | 348 kts | 236° |
| 2026-04-30 19:02 | 49.26442 | 3.90949 | 25213 ft | 350 kts | 236° |
| 2026-04-30 19:02 | 49.23932 | 3.84555 | 25216 ft | 353 kts | 236° |
| 2026-04-30 19:03 | 49.21818 | 3.79181 | 25212 ft | 356 kts | 236° |
| 2026-04-30 19:03 | 49.18827 | 3.71592 | 25208 ft | 358 kts | 236° |
| 2026-04-30 19:04 | 49.16244 | 3.65058 | 25208 ft | 359 kts | 236° |
| 2026-04-30 19:04 | 49.13671 | 3.58566 | 25200 ft | 361 kts | 236° |
| 2026-04-30 19:05 | 49.11057 | 3.51986 | 25194 ft | 361 kts | 235° |
| 2026-04-30 19:05 | 49.08469 | 3.45488 | 25193 ft | 361 kts | 236° |
| 2026-04-30 19:06 | 49.06284 | 3.40015 | 25182 ft | 361 kts | 236° |
| 2026-04-30 19:06 | 49.04559 | 3.35700 | 25178 ft | 361 kts | 236° |
| 2026-04-30 19:06 | 49.01945 | 3.29178 | 25178 ft | 359 kts | 235° |
| 2026-04-30 19:07 | 48.99348 | 3.22716 | 25174 ft | 356 kts | 235° |
| 2026-04-30 19:07 | 48.98068 | 3.19539 | 25179 ft | 355 kts | 235° |
| 2026-04-30 19:08 | 48.95493 | 3.13154 | 25172 ft | 354 kts | 234° |
| 2026-04-30 19:08 | 48.92906 | 3.06755 | 25174 ft | 353 kts | 234° |
| 2026-04-30 19:08 | 48.91619 | 3.03578 | 25171 ft | 353 kts | 234° |
| 2026-04-30 19:09 | 48.89066 | 2.97282 | 25168 ft | 353 kts | 234° |
| 2026-04-30 19:09 | 48.87773 | 2.94101 | 25170 ft | 352 kts | 234° |
| 2026-04-30 19:09 | 48.86498 | 2.90965 | 25169 ft | 352 kts | 234° |
| 2026-04-30 19:10 | 48.83924 | 2.84651 | 25168 ft | 351 kts | 234° |
| 2026-04-30 19:10 | 48.81771 | 2.79380 | 25167 ft | 352 kts | 234° |
| 2026-04-30 19:11 | 48.80064 | 2.75209 | 25163 ft | 352 kts | 234° |
| 2026-04-30 19:11 | 48.77472 | 2.68888 | 25163 ft | 352 kts | 234° |
| 2026-04-30 19:11 | 48.76174 | 2.65727 | 25163 ft | 352 kts | 234° |
| 2026-04-30 19:12 | 48.74889 | 2.62601 | 25161 ft | 352 kts | 234° |
| 2026-04-30 19:12 | 48.73600 | 2.59469 | 25159 ft | 352 kts | 234° |
| 2026-04-30 19:12 | 48.72303 | 2.56322 | 25158 ft | 352 kts | 234° |
| 2026-04-30 19:13 | 48.69725 | 2.50076 | 25156 ft | 351 kts | 234° |
| 2026-04-30 19:13 | 48.67141 | 2.43833 | 25156 ft | 349 kts | 234° |
| 2026-04-30 19:13 | 48.65858 | 2.40737 | 25157 ft | 348 kts | 234° |
| 2026-04-30 19:14 | 48.64570 | 2.37632 | 25159 ft | 347 kts | 234° |
| 2026-04-30 19:14 | 48.63296 | 2.34570 | 25157 ft | 346 kts | 234° |
| 2026-04-30 19:14 | 48.62009 | 2.31474 | 25159 ft | 345 kts | 233° |
| 2026-04-30 19:14 | 48.60751 | 2.28452 | 25159 ft | 345 kts | 233° |
| 2026-04-30 19:15 | 48.59520 | 2.25498 | 25152 ft | 343 kts | 233° |
| 2026-04-30 19:15 | 48.56603 | 2.19804 | 25135 ft | 327 kts | 208° |
| 2026-04-30 19:15 | 48.54553 | 2.18583 | 25167 ft | 316 kts | 190° |
| 2026-04-30 19:16 | 48.52407 | 2.17984 | 25154 ft | 314 kts | 182° |
| 2026-04-30 19:16 | 48.50240 | 2.17670 | 25153 ft | 314 kts | 181° |
| 2026-04-30 19:16 | 48.45851 | 2.17109 | 25148 ft | 316 kts | 180° |
| 2026-04-30 19:17 | 48.43667 | 2.16836 | 25145 ft | 316 kts | 180° |
| 2026-04-30 19:17 | 48.39267 | 2.16291 | 25147 ft | 318 kts | 180° |
| 2026-04-30 19:17 | 48.37070 | 2.16021 | 25149 ft | 318 kts | 180° |
| 2026-04-30 19:18 | 48.34123 | 2.15660 | 25145 ft | 320 kts | 181° |
| 2026-04-30 19:18 | 48.30412 | 2.15206 | 25146 ft | 321 kts | 181° |
| 2026-04-30 19:18 | 48.28198 | 2.14937 | 25147 ft | 321 kts | 181° |
| 2026-04-30 19:19 | 48.25961 | 2.14665 | 25144 ft | 322 kts | 181° |
| 2026-04-30 19:19 | 48.23716 | 2.14392 | 25141 ft | 323 kts | 181° |
| 2026-04-30 19:19 | 48.19250 | 2.13850 | 25142 ft | 323 kts | 181° |
| 2026-04-30 19:20 | 48.17012 | 2.13579 | 25141 ft | 323 kts | 181° |
| 2026-04-30 19:20 | 48.15499 | 2.13396 | 25141 ft | 323 kts | 181° |
| 2026-04-30 19:20 | 48.10274 | 2.13266 | 25138 ft | 322 kts | 174° |
| 2026-04-30 19:21 | 48.08062 | 2.13407 | 25136 ft | 322 kts | 174° |
| 2026-04-30 19:21 | 48.03588 | 2.13688 | 25133 ft | 322 kts | 174° |
| 2026-04-30 19:22 | 47.99081 | 2.13964 | 25133 ft | 323 kts | 174° |
| 2026-04-30 19:22 | 47.92361 | 2.14366 | 25130 ft | 323 kts | 174° |
| 2026-04-30 19:23 | 47.86387 | 2.14718 | 25129 ft | 322 kts | 174° |
| 2026-04-30 19:24 | 47.81192 | 2.15023 | 25129 ft | 320 kts | 174° |
| 2026-04-30 19:24 | 47.78965 | 2.15154 | 25127 ft | 319 kts | 175° |
| 2026-04-30 19:24 | 47.74518 | 2.15414 | 25124 ft | 319 kts | 175° |
| 2026-04-30 19:25 | 47.67854 | 2.15803 | 25130 ft | 320 kts | 175° |
| 2026-04-30 19:26 | 47.63402 | 2.16061 | 25127 ft | 320 kts | 175° |
| 2026-04-30 19:26 | 47.58944 | 2.16319 | 25123 ft | 322 kts | 175° |
| 2026-04-30 19:26 | 47.56695 | 2.16450 | 25124 ft | 322 kts | 175° |
| 2026-04-30 19:27 | 47.52227 | 2.16708 | 25124 ft | 322 kts | 175° |
| 2026-04-30 19:27 | 47.47710 | 2.16969 | 25124 ft | 324 kts | 175° |
| 2026-04-30 19:28 | 47.45484 | 2.17097 | 25122 ft | 324 kts | 175° |
| 2026-04-30 19:28 | 47.40948 | 2.17357 | 25121 ft | 325 kts | 175° |
| 2026-04-30 19:29 | 47.36420 | 2.17618 | 25119 ft | 326 kts | 175° |
| 2026-04-30 19:29 | 47.34169 | 2.17747 | 25120 ft | 326 kts | 175° |
| 2026-04-30 19:30 | 47.27361 | 2.18138 | 25120 ft | 327 kts | 175° |
| 2026-04-30 19:30 | 47.22794 | 2.18399 | 25117 ft | 328 kts | 175° |
| 2026-04-30 19:31 | 47.18227 | 2.18660 | 25116 ft | 328 kts | 175° |
| 2026-04-30 19:31 | 47.15962 | 2.18789 | 25114 ft | 328 kts | 175° |
| 2026-04-30 19:31 | 47.11404 | 2.19048 | 25113 ft | 328 kts | 175° |
| 2026-04-30 19:32 | 47.09119 | 2.19079 | 25099 ft | 330 kts | 183° |
| 2026-04-30 19:32 | 47.06937 | 2.18050 | 25141 ft | 332 kts | 204° |
| 2026-04-30 19:32 | 47.04878 | 2.16411 | 25120 ft | 334 kts | 207° |
| 2026-04-30 19:32 | 47.02881 | 2.14717 | 25109 ft | 335 kts | 208° |
| 2026-04-30 19:33 | 47.00884 | 2.12963 | 25108 ft | 336 kts | 209° |
| 2026-04-30 19:33 | 46.98867 | 2.11152 | 25112 ft | 336 kts | 209° |
| 2026-04-30 19:33 | 46.96906 | 2.09365 | 25115 ft | 336 kts | 210° |
| 2026-04-30 19:33 | 46.94896 | 2.07512 | 25115 ft | 337 kts | 210° |
| 2026-04-30 19:34 | 46.92919 | 2.05676 | 25114 ft | 337 kts | 210° |
| 2026-04-30 19:34 | 46.90967 | 2.03853 | 25116 ft | 337 kts | 210° |
| 2026-04-30 19:34 | 46.87011 | 2.00139 | 25119 ft | 337 kts | 211° |
| 2026-04-30 19:35 | 46.85049 | 1.98292 | 25118 ft | 336 kts | 211° |
| 2026-04-30 19:35 | 46.83095 | 1.96452 | 25120 ft | 335 kts | 211° |
| 2026-04-30 19:35 | 46.81136 | 1.94604 | 25120 ft | 333 kts | 210° |
| 2026-04-30 19:35 | 46.79193 | 1.92773 | 25123 ft | 334 kts | 210° |
| 2026-04-30 19:36 | 46.77241 | 1.90933 | 25125 ft | 334 kts | 211° |
| 2026-04-30 19:36 | 46.75298 | 1.89104 | 25126 ft | 335 kts | 210° |
| 2026-04-30 19:36 | 46.71382 | 1.85415 | 25129 ft | 335 kts | 211° |
| 2026-04-30 19:37 | 46.69421 | 1.83570 | 25128 ft | 335 kts | 211° |
| 2026-04-30 19:37 | 46.67445 | 1.81713 | 25128 ft | 336 kts | 211° |
| 2026-04-30 19:37 | 46.65483 | 1.79870 | 25126 ft | 336 kts | 211° |
| 2026-04-30 19:37 | 46.63540 | 1.78047 | 25126 ft | 336 kts | 211° |
| 2026-04-30 19:38 | 46.61561 | 1.76192 | 25124 ft | 336 kts | 211° |
| 2026-04-30 19:38 | 46.59601 | 1.74355 | 25126 ft | 336 kts | 211° |
| 2026-04-30 19:38 | 46.57634 | 1.72513 | 25130 ft | 336 kts | 211° |
| 2026-04-30 19:38 | 46.55685 | 1.70690 | 25131 ft | 336 kts | 211° |
| 2026-04-30 19:39 | 46.53706 | 1.68841 | 25131 ft | 336 kts | 210° |
| 2026-04-30 19:39 | 46.51730 | 1.66995 | 25131 ft | 336 kts | 210° |
| 2026-04-30 19:39 | 46.49779 | 1.65175 | 25132 ft | 336 kts | 211° |
| 2026-04-30 19:39 | 46.47805 | 1.63334 | 25134 ft | 336 kts | 211° |
| 2026-04-30 19:40 | 46.45845 | 1.61509 | 25134 ft | 336 kts | 211° |
| 2026-04-30 19:40 | 46.43873 | 1.59673 | 25134 ft | 336 kts | 211° |
| 2026-04-30 19:40 | 46.41902 | 1.57840 | 25134 ft | 335 kts | 211° |
| 2026-04-30 19:40 | 46.39925 | 1.56003 | 25135 ft | 335 kts | 211° |
| 2026-04-30 19:41 | 46.37975 | 1.54194 | 25136 ft | 335 kts | 211° |
| 2026-04-30 19:41 | 46.36016 | 1.52375 | 25135 ft | 335 kts | 210° |
| 2026-04-30 19:41 | 46.34038 | 1.50543 | 25136 ft | 336 kts | 210° |
| 2026-04-30 19:41 | 46.32091 | 1.48740 | 25137 ft | 336 kts | 210° |
| 2026-04-30 19:42 | 46.30104 | 1.46903 | 25136 ft | 336 kts | 210° |
| 2026-04-30 19:42 | 46.28160 | 1.45106 | 25137 ft | 336 kts | 210° |
| 2026-04-30 19:42 | 46.26169 | 1.43268 | 25139 ft | 336 kts | 210° |
| 2026-04-30 19:42 | 46.24213 | 1.41463 | 25140 ft | 336 kts | 210° |
| 2026-04-30 19:43 | 46.22261 | 1.39664 | 25140 ft | 336 kts | 210° |
| 2026-04-30 19:43 | 46.20290 | 1.37848 | 25140 ft | 336 kts | 210° |
| 2026-04-30 19:43 | 46.18321 | 1.36036 | 25139 ft | 336 kts | 210° |
| 2026-04-30 19:44 | 46.14817 | 1.31663 | 25140 ft | 337 kts | 225° |
| 2026-04-30 19:44 | 46.13251 | 1.29127 | 25144 ft | 336 kts | 226° |
| 2026-04-30 19:44 | 46.11702 | 1.26611 | 25144 ft | 334 kts | 225° |
| 2026-04-30 19:44 | 46.10159 | 1.24110 | 25140 ft | 334 kts | 225° |
| 2026-04-30 19:45 | 46.08616 | 1.21616 | 25139 ft | 335 kts | 225° |
| 2026-04-30 19:45 | 46.07046 | 1.19079 | 25136 ft | 336 kts | 225° |
| 2026-04-30 19:45 | 46.05505 | 1.16595 | 25141 ft | 336 kts | 225° |
| 2026-04-30 19:45 | 46.03943 | 1.14076 | 25138 ft | 337 kts | 225° |
| 2026-04-30 19:46 | 46.02391 | 1.11579 | 25141 ft | 337 kts | 225° |
| 2026-04-30 19:46 | 46.00818 | 1.09050 | 25141 ft | 337 kts | 225° |
| 2026-04-30 19:46 | 45.99264 | 1.06554 | 25142 ft | 337 kts | 225° |
| 2026-04-30 19:46 | 45.97695 | 1.04039 | 25138 ft | 338 kts | 225° |
| 2026-04-30 19:47 | 45.96140 | 1.01547 | 25140 ft | 338 kts | 225° |
| 2026-04-30 19:47 | 45.95076 | 0.99843 | 25139 ft | 338 kts | 225° |
| 2026-04-30 19:47 | 45.92990 | 0.96505 | 25138 ft | 338 kts | 225° |
| 2026-04-30 19:47 | 45.91422 | 0.93999 | 25134 ft | 338 kts | 225° |
| 2026-04-30 19:48 | 45.89850 | 0.91489 | 25132 ft | 337 kts | 225° |
| 2026-04-30 19:48 | 45.88280 | 0.88984 | 25128 ft | 337 kts | 225° |
| 2026-04-30 19:48 | 45.86715 | 0.86489 | 25134 ft | 337 kts | 225° |
| 2026-04-30 19:48 | 45.85151 | 0.84000 | 25129 ft | 337 kts | 225° |
| 2026-04-30 19:49 | 45.83586 | 0.81511 | 25128 ft | 337 kts | 225° |
| 2026-04-30 19:49 | 45.80476 | 0.76572 | 25127 ft | 335 kts | 225° |
| 2026-04-30 19:49 | 45.78897 | 0.74065 | 25124 ft | 336 kts | 225° |
| 2026-04-30 19:50 | 45.77339 | 0.71595 | 25125 ft | 336 kts | 225° |
| 2026-04-30 19:50 | 45.75761 | 0.69098 | 25123 ft | 336 kts | 225° |
| 2026-04-30 19:50 | 45.74193 | 0.66616 | 25123 ft | 336 kts | 225° |
| 2026-04-30 19:50 | 45.72642 | 0.64167 | 25123 ft | 336 kts | 225° |
| 2026-04-30 19:51 | 45.71056 | 0.61661 | 25122 ft | 337 kts | 225° |
| 2026-04-30 19:51 | 45.69501 | 0.59208 | 25122 ft | 337 kts | 225° |
| 2026-04-30 19:51 | 45.67928 | 0.56728 | 25126 ft | 336 kts | 225° |
| 2026-04-30 19:51 | 45.66352 | 0.54244 | 25121 ft | 336 kts | 225° |
| 2026-04-30 19:52 | 45.64794 | 0.51795 | 25119 ft | 336 kts | 225° |
| 2026-04-30 19:52 | 45.63218 | 0.49317 | 25114 ft | 336 kts | 225° |
| 2026-04-30 19:52 | 45.61639 | 0.46840 | 25105 ft | 336 kts | 225° |
| 2026-04-30 19:52 | 45.60105 | 0.44429 | 24887 ft | 322 kts | 224° |
| 2026-04-30 19:53 | 45.58627 | 0.42119 | 24453 ft | 312 kts | 224° |
| 2026-04-30 19:53 | 45.57177 | 0.39852 | 23958 ft | 305 kts | 224° |
| 2026-04-30 19:53 | 45.55769 | 0.37657 | 23459 ft | 299 kts | 224° |
| 2026-04-30 19:53 | 45.54375 | 0.35483 | 22959 ft | 293 kts | 224° |
| 2026-04-30 19:54 | 45.53023 | 0.33374 | 22473 ft | 286 kts | 224° |
| 2026-04-30 19:54 | 45.51709 | 0.31324 | 21997 ft | 279 kts | 223° |
| 2026-04-30 19:54 | 45.50430 | 0.29330 | 21536 ft | 271 kts | 224° |
| 2026-04-30 19:54 | 45.49180 | 0.27383 | 21078 ft | 265 kts | 224° |
| 2026-04-30 19:55 | 45.47946 | 0.25463 | 20628 ft | 257 kts | 224° |
| 2026-04-30 19:55 | 45.46736 | 0.23580 | 20206 ft | 262 kts | 224° |
| 2026-04-30 19:55 | 45.45491 | 0.21641 | 19765 ft | 275 kts | 224° |
| 2026-04-30 19:55 | 45.44163 | 0.19578 | 19289 ft | 289 kts | 225° |
| 2026-04-30 19:56 | 45.42772 | 0.17415 | 18776 ft | 300 kts | 225° |
| 2026-04-30 19:56 | 45.41371 | 0.15238 | 18250 ft | 302 kts | 225° |
| 2026-04-30 19:56 | 45.39954 | 0.13040 | 17740 ft | 300 kts | 225° |
| 2026-04-30 19:56 | 45.38547 | 0.10858 | 17233 ft | 298 kts | 225° |
| 2026-04-30 19:57 | 45.37144 | 0.08685 | 16724 ft | 296 kts | 225° |
| 2026-04-30 19:57 | 45.35762 | 0.06546 | 16219 ft | 295 kts | 225° |
| 2026-04-30 19:57 | 45.34386 | 0.04418 | 15723 ft | 292 kts | 225° |
| 2026-04-30 19:57 | 45.33014 | 0.02297 | 15222 ft | 290 kts | 225° |
| 2026-04-30 19:58 | 45.31652 | 0.00195 | 14737 ft | 287 kts | 226° |
| 2026-04-30 19:58 | 45.30323 | -0.01856 | 14248 ft | 284 kts | 225° |
| 2026-04-30 19:58 | 45.29021 | -0.03865 | 13776 ft | 282 kts | 225° |
| 2026-04-30 19:58 | 45.27702 | -0.05897 | 13303 ft | 280 kts | 226° |
| 2026-04-30 19:59 | 45.26389 | -0.07918 | 12829 ft | 278 kts | 226° |
| 2026-04-30 19:59 | 45.25100 | -0.09900 | 12360 ft | 276 kts | 226° |
| 2026-04-30 19:59 | 45.22501 | -0.13894 | 11313 ft | 276 kts | 226° |
| 2026-04-30 20:00 | 45.21204 | -0.15884 | 10797 ft | 276 kts | 226° |
| 2026-04-30 20:00 | 45.19917 | -0.17859 | 10319 ft | 274 kts | 227° |
| 2026-04-30 20:00 | 45.18632 | -0.19830 | 9845 ft | 271 kts | 227° |
| 2026-04-30 20:00 | 45.17363 | -0.21773 | 9378 ft | 269 kts | 227° |
| 2026-04-30 20:01 | 45.14836 | -0.25638 | 8471 ft | 266 kts | 227° |
| 2026-04-30 20:01 | 45.13583 | -0.27553 | 8018 ft | 264 kts | 227° |
| 2026-04-30 20:01 | 45.12348 | -0.29441 | 7573 ft | 263 kts | 227° |
| 2026-04-30 20:02 | 45.09872 | -0.33217 | 6678 ft | 256 kts | 226° |
| 2026-04-30 20:02 | 45.08675 | -0.35040 | 6242 ft | 251 kts | 226° |
| 2026-04-30 20:03 | 45.06259 | -0.38466 | 5357 ft | 244 kts | 223° |
| 2026-04-30 20:03 | 45.05031 | -0.40099 | 4956 ft | 239 kts | 222° |
| 2026-04-30 20:03 | 45.03813 | -0.41622 | 4597 ft | 233 kts | 220° |
| 2026-04-30 20:03 | 45.02495 | -0.42906 | 4211 ft | 227 kts | 207° |
| 2026-04-30 20:04 | 45.01301 | -0.44320 | 4061 ft | 227 kts | 234° |
| 2026-04-30 20:04 | 45.00402 | -0.46163 | 3984 ft | 229 kts | 229° |
| 2026-04-30 20:04 | 44.99293 | -0.47793 | 3949 ft | 229 kts | 225° |
| 2026-04-30 20:05 | 44.97109 | -0.51070 | 3775 ft | 223 kts | 225° |
| 2026-04-30 20:05 | 44.96049 | -0.52593 | 3473 ft | 213 kts | 225° |
| 2026-04-30 20:05 | 44.94082 | -0.55438 | 2908 ft | 192 kts | 225° |
| 2026-04-30 20:06 | 44.93175 | -0.56744 | 2716 ft | 184 kts | 225° |
| 2026-04-30 20:06 | 44.92273 | -0.58052 | 2511 ft | 188 kts | 225° |
| 2026-04-30 20:06 | 44.91338 | -0.59398 | 2268 ft | 193 kts | 224° |
| 2026-04-30 20:06 | 44.90407 | -0.60727 | 1982 ft | 187 kts | 224° |
| 2026-04-30 20:07 | 44.89529 | -0.61986 | 1706 ft | 172 kts | 224° |
| 2026-04-30 20:07 | 44.88732 | -0.63131 | 1520 ft | 153 kts | 224° |
| 2026-04-30 20:07 | 44.87374 | -0.65084 | 1109 ft | 130 kts | 224° |
| 2026-04-30 20:08 | 44.86765 | -0.65977 | 922 ft | 123 kts | 225° |
| 2026-04-30 20:08 | 44.86249 | -0.66737 | 793 ft | 124 kts | 225° |
| 2026-04-30 20:08 | 44.85642 | -0.67586 | 660 ft | 122 kts | 223° |
| 2026-04-30 20:08 | 44.85045 | -0.68435 | 540 ft | 120 kts | 225° |
| 2026-04-30 20:09 | 44.84451 | -0.69286 | 389 ft | 121 kts | 222° |
| 2026-04-30 20:09 | 44.83854 | -0.70122 | 195 ft | 119 kts | 223° |
| 2026-04-30 20:09 | 44.83114 | -0.71179 | 168 ft | 28 kts | 226° |
| 2026-04-30 20:10 | 44.83002 | -0.71223 | 168 ft | 6 kts | 128° |
| 2026-04-30 20:10 | 44.82987 | -0.71162 | 168 ft | 6 kts | 107° |
| 2026-04-30 20:10 | 44.82965 | -0.71053 | 168 ft | 13 kts | 107° |
| 2026-04-30 20:11 | 44.82916 | -0.70826 | 168 ft | 9 kts | 107° |
| 2026-04-30 20:11 | 44.82899 | -0.70747 | 168 ft | 8 kts | 105° |
| 2026-04-30 20:11 | 44.82885 | -0.70680 | 168 ft | 6 kts | 106° |
| 2026-04-30 20:12 | 44.82853 | -0.70515 | 168 ft | 13 kts | 105° |
| 2026-04-30 20:12 | 44.82829 | -0.70413 | 168 ft | 9 kts | 106° |
| 2026-04-30 20:12 | 44.82807 | -0.70301 | 168 ft | 13 kts | 105° |
| 2026-04-30 20:13 | 44.82789 | -0.70214 | 168 ft | 5 kts | 90° |
| 2026-04-30 20:13 | 44.82818 | -0.70175 | 168 ft | 5 kts | 18° |
| 2026-04-30 20:13 | 44.82842 | -0.70126 | 168 ft | 5 kts | 37° |
| 2026-04-30 20:13 | 44.82877 | -0.70105 | 167 ft | 4 kts | 42° |
| 2026-04-30 20:14 | 44.82890 | -0.70082 | 167 ft | 1 kts | 54° |
| 2026-04-30 20:14 | 44.82892 | -0.70080 | 167 ft | 0 kts | 54° |